Timeline UpdatesTrip UpdatesNews PostsPvt PostsTravel TipsAdmin PostsConv PostsFollowed PostsChat RequestsBlog PostsPNR Posts

Disclaimer
Search
 
 
Fri Apr 18, 2014 00:45:06 ISTHomeTrainsΣChainsAtlasPNRForumGalleryNewsFAQTripsMembersLoginFeedback
No Recent News for this Train
Other Trains in the News **new
Latest...
..
Tue Oct 08, 2013 (06:13AM)
⇐ Return Journey: Train# 13133

13134/Varanasi - Sealdah (Upper India) Express

Feb 08 2014 (8:51AM)
Change Departure Station:
Change Arrival Station:
Post a Train Travel TipPost a Train Travel Tip **new
Post a Comment/Question/Picture/VideoPost a Comment/Question/Picture/Video
Pantry/Catering
✕ NO Pantry Car
✕ NO Catering
RSA - Rake Sharing
No RSA
Rake/Coach Composition
LOCO-SLR-S1-GS-GS-GS-GS-GS-GS-SLR
Loco
BWN or JMP shed WDM-3A
News    PNR    Forum    Time-Table    Availability    Fare Chart    Map    Arr/Dep History    Trips    Gallery    ΣChains    X/O    Timeline    
Travel Time: 9h 20m    34 halts    Distance: 302 km    Avg Speed: 32 km/hr
Type: Mail/Express
Zone: ER/Eastern
Departs @ 08:40 (Avg 2m late)
Platform# 4
SMTWTFS
Varanasi Junction/BSB 
Arrives @ 18:00 (Avg 1h 23m late)
Platform# ???
SMTWTFS
Punarakh/PHK 

34 halts. 72 intermediate Stations between Varanasi Junction and Punarakh

Show ALL intermediate Stations  Show Old Time-Table

#CodeStation NameX/OArrivesAvgDepartsAvgHaltPFDay#KmSpeedElevZoneAddress
1BSB»Varanasi Junction (9)»  -08:40+2410.01882mNRVaranasi, Uttar Pradesh
2MGSMughal Sarai Junction (8)X  09:35+209:50+415m--116.44283mECRMughalsarai 232101, Uttar Pradesh
3SLDSakaldiha (2)  10:16+310:18+132m--134.68781mECRState Highway 69, Uttar Pradesh
4ZNAZamaniaX  10:36+2410:38+272m--160.75877mECRGhazipur, Uttar Pradesh
5DLNDildarnagar Junction (2)  10:52+2610:57+285m--174.13672mECRDildarnagar, Uttar Pradesh
6BWHBhadaura  11:10+2511:12+252m--182.04969mECRGhazipur, Uttar Pradesh
7GMRGahmar (2)  11:22+2411:24+292m--190.26968mECRDistt: Ghazipur, Uttar Pradesh
8CSAChausa (2)  11:32+3211:34+352m--199.44468mECRState Highway 14, Bihar
9BXRBuxar (3)X  11:49+3111:53+324m11110.310967mECRBuxar, Bihar
10DUREDumraon (3)  12:02+3712:04+382m--1126.74670mECRDumraon, Bihar
11TWGTwining GanjX12:14+3712:16+402m--1134.3-70mECRArrah Buxar Rd, Bihar
12RPRRaghunathpur  12:18+4712:20+482m--1142.66669mECRRaghunathpur, Bihar
13BYNBanahiX  12:28+4912:30+482m--1151.55167mECRBanahi, Bihar
14BEABihiyaX  12:37+4912:39+512m--1157.47767mECRBehea, Bihar
15KRSKarisath (2)X  12:48+5812:50+1:042m--1168.95965mECRKarisath, Bihar
16ARAAra Junction (3)  13:00+1:0413:05+1:055m--1178.87463mECRarrah( 06182-233411), Bihar
17KUAKulharia (2)  13:13+1:1313:14+1:181m--1188.74361mECRChandi Sahar Rd, Bihar
18KWRKoelwar (2)X  13:19+1:1613:21+1:162m--1192.31865mECRNational Highway 30, Bihar
19VHCHChakki Block CabinX  13:29+1:1613:31+1:142m--1194.85463mECRNational Highway 30, Bihar
20BTABihta (2)X  13:38+1:1413:40+1:172m--1201.04262mECRBihta, Bihar
21SDESadisopur (2)X  13:46+1:2013:48+1:202m--1205.36164mECRSadisopur, Bihar
22NEONeora (2)XO  13:55+1:2013:57+1:262m--1212.3761mECRNational Highway 98, Bihar
23DNRDanapur (5)XO  14:50+4915:00+5210m--1218.45158mECRKhagaul, Bihar
24PWSPhulwari Sharif (3)X  15:04+5515:06+562m--1221.8958mECRPatna, Bihar
25PNBEPatna Junction (10)X  15:45+3515:55+3910m11227.82257mECRPatna 800001, Bihar
26RJPBRajendra Nagar Bihar (4)X  16:02+4016:04+412m--1230.45155mECRPatna 800001, Bihar
27GZHGulzarbagh (3)X  16:09+4416:11+502m--1234.62055mECRPatna, Bihar
28PNCPatna Saheb (3)  16:20+4716:22+512m--1237.75659mECRPatna, Bihar
29FUTFatwa (6)  16:35+5416:37+1:082m--1249.92853mECRPatna, Bihar
30HDEHardas BighaX  16:42+1:0916:44+1:092m--1252.27453mECRFatwah, Bihar
31KOOKhusropur (2)O  16:49+1:0916:51+1:092m--1258.32052mECRPatna, Bihar
32KWOKarauta (2)X  17:16+5517:18+1:072m--1266.63254mECRKarauta, Bihar
33BKPBakhtiyarpur Junction (5)X  17:30+1:0717:32+1:142m--1272.99151mECRPatna, Bihar
34ATLAthmal Gola (2)  17:38+1:1817:40+1:172m--1282.06952mECRPatna, Bihar
35BARHBarh (3)  17:48+1:1917:50+1:242m--1291.16249mECRBarh, Bihar
36PHK•Punarakh•XO  18:00+1:2318:02+1:232m--1301.51051mECRPunarakh, Bihar
37MORMorX  18:51+4418:53+462m--1309.83646mECRMor, Bihar
38MKAMokama Junction (3)  19:05+4319:10+415m--1317.06348mECRPatna, Bihar
39HTZHathidah Junction (2)X  19:18+4519:20+462m11325.44350mECRMusahari, Bihar
40BRYABarhiyaX  19:33+5219:35+522m--1334.87047mECRBarahiya, Bihar
41LKRLuckeesarai Junction (2)XO  19:48+5819:50+582m--1349.9152mECRLakhisarai, Bihar
42KIULKiul Junction (5)  20:45+2020:55+1910m51351.25953mECRDist. Lakhisarai, Bihar
43KJHKajra (2)  21:11+2721:13+282m--1367.04950mERLakhisarai District, Bihar
44AHAAbhaipur  21:22+2921:24+292m--1374.25552mERAbhaipur, Bihar
45DRHDharhara (2)  21:35+3021:37+302m--1384.34755mERDharhara, Bihar
46DRTPDasharathpur  21:44+3021:46+312m--1389.72748mERDharhara, Bihar
47JMPJamalpur Junction (4)  22:00+2722:10+2910m--1396.14759mERJamalpur 06344-243101, Bihar
48RPURRatanpur  22:18+3022:20+302m--1402.44246mERRatanpur Railway Station, Bihar
49BUPBariarpur (3)  22:27+2922:29+302m--1407.25442mERMunger, Bihar
50SGGSultanGanj  22:49+2722:51+282m--1425.14642mERSultanganj, Bihar
51AKNAkbarnagar  23:04+2523:06+262m--1435.24539mERTilakpur, Bihar
52MPYMurarpur  23:13+2323:15+232m--1440.54238mERMau, Bihar
53NATNathnagar  23:22+2223:24+222m--1445.41848mERBhagalpur, Bihar
54BGPBhagalpur Junction (6)X  23:40+1623:55+2215m--1450.15749mERBhagalpur, Bihar
55SBOSabaur (3)X  00:03+2500:05+282m--2457.65042mERSabour, Bihar
56GGAGhoga (2)  00:20+3100:22+312m--2470.14942mERGhoga, Bihar
57EKCEkchari  00:29+3200:31+322m--2475.82037mERNational Highway 80, Bihar
58CLGKahalgaon (2)X  00:44+2800:46+302m22480.23244mERBhagalpur, Bihar
59BKSLBikram Shila  01:01+2701:03+272m--2488.22358mERBikram Shila, Bihar
60SVRPShivanarayanpur  01:12+2401:14+262m--2491.64847mERShivanarayanpur, Bihar
61PPTPirpainti (2)  01:25+2701:27+282m--2500.55653mERBhagalpur, Bihar
62MZCMirza Cheuki  01:36+3001:38+312m--2509.03638mERBihar, Bihar
63SBGSahibganj Junction (3)  02:03+2502:13+3110m12524.05638mERSahibganj, Jharkhand
64MJPMaharajpurX  02:28+1102:34+96m--2538.08534mERMoharajpur, Jharkhand
65TLJTaljhari  02:44+3602:46+362m--2552.23638mERTaljhari, Jharkhand
66KXEKalian ChakX  02:54+903:00+76m--2557.09745mERKalian Chak, Jharkhand
67TPHTinpahar Junction (3)  03:03+2603:05+262m22561.82945mERBamangawan, Jharkhand
68BHWBarharwa Junction (3)  03:40+1403:45+155m22578.56536mERBarharwa, Jharkhand
69KLPKotalpukur (3)X  03:58+3304:00+322m12592.56540mERKotalpukur, Jharkhand
70PKRPakur (2)  04:11+3404:13+352m22604.54237mERDist:- Pakur, Jharkhand
71RJGRajgram (3)  04:28+3604:30+362m22615.15032mERRajgram, West Bengal
72BSBRBanshlai Bridge (2)  04:38+3604:40+372m--2621.84335mERState Highway 5, West Bengal
73MRRMurarai (3)  04:47+3804:49+382m22626.85736mERMurarai, West Bengal
74CTRChatra (3)X  04:57+4204:59+422m22634.44742mERChatra, West Bengal
75NHTNalhati Junction (4)  05:10+4005:12+412m22643.02348mERNalhati, West Bengal
76RPHRampurhat (3)X  05:48+3006:03+2415m12657.16841mERDIST - Birbhum, West Bengal
77MLVMallarpur (3)  06:14+2806:16+292m--2669.54946mERDist - Birbhum, West Bengal
78SNTSainthia Junction (4)X  06:35+3006:37+302m42685.18058mERDist - Birbhum, West Bengal
79AMPAhmadpur Junction (3)  06:47+3306:49+332m22698.36546mERDist - Birbhum, West Bengal
80PNEPrantik (3)  07:03+3207:05+312m22713.63248mERPrantik, West Bengal
81BHPBolpur Shantiniketan (3)  07:13+2907:18+285m22717.87159mERBolpur, West Bengal
82GKHGuskara (2)X  07:34+2907:36+292m--2736.73541mERDist - Bardhaman, West Bengal
83BWNBarddhaman Junction (8)XO  08:32+2008:56+1324m--2769.67034mERDist - Barddhaman, West Bengal
84DAKEDakhineswar (2)  10:12+1110:14+112m22858.22310mERDist - 24 paraganas ( North ), West Bengal
85BNXRBidhan Nagar Road (4)  10:38+910:40+92m42867.6138mERKolkata, West Bengal
86SDAHKolkata Sealdah (20)10:55+9-92870.9-8mERPh : 033-23503535 (For North: APC Roy Road) Kolkata 700014, West Bengal
Scroll to Top
Scroll to Bottom